sensor_id;sensor_type;location;lat;lon;timestamp;temperature;humidity
54576;DHT22;40472;53.486;14.542;2023-03-13T00:00:16;1.80;99.90
54576;DHT22;40472;53.486;14.542;2023-03-13T00:02:43;1.80;99.90
54576;DHT22;40472;53.486;14.542;2023-03-13T00:05:11;1.80;99.90
54576;DHT22;40472;53.486;14.542;2023-03-13T00:07:37;1.90;99.90
54576;DHT22;40472;53.486;14.542;2023-03-13T00:10:03;1.90;99.90
54576;DHT22;40472;53.486;14.542;2023-03-13T00:12:30;1.90;99.90
54576;DHT22;40472;53.486;14.542;2023-03-13T00:14:55;2.00;99.90
54576;DHT22;40472;53.486;14.542;2023-03-13T00:17:22;2.00;99.90
54576;DHT22;40472;53.486;14.542;2023-03-13T00:19:49;2.00;99.90
54576;DHT22;40472;53.486;14.542;2023-03-13T00:22:15;2.00;99.90
54576;DHT22;40472;53.486;14.542;2023-03-13T00:24:41;2.10;99.90
54576;DHT22;40472;53.486;14.542;2023-03-13T00:27:07;2.10;99.90
54576;DHT22;40472;53.486;14.542;2023-03-13T00:29:33;2.10;99.90
54576;DHT22;40472;53.486;14.542;2023-03-13T00:31:59;2.20;99.90
54576;DHT22;40472;53.486;14.542;2023-03-13T00:34:25;2.20;99.90
54576;DHT22;40472;53.486;14.542;2023-03-13T00:36:53;2.30;99.90
54576;DHT22;40472;53.486;14.542;2023-03-13T00:39:20;2.40;99.90
54576;DHT22;40472;53.486;14.542;2023-03-13T00:41:46;2.40;99.90
54576;DHT22;40472;53.486;14.542;2023-03-13T00:44:13;2.50;99.90
54576;DHT22;40472;53.486;14.542;2023-03-13T00:46:38;2.50;99.90
54576;DHT22;40472;53.486;14.542;2023-03-13T00:49:04;2.60;99.90
54576;DHT22;40472;53.486;14.542;2023-03-13T00:51:30;2.60;99.90
54576;DHT22;40472;53.486;14.542;2023-03-13T00:53:57;2.70;99.90
54576;DHT22;40472;53.486;14.542;2023-03-13T00:56:27;2.70;99.90
54576;DHT22;40472;53.486;14.542;2023-03-13T00:58:53;2.80;99.90
54576;DHT22;40472;53.486;14.542;2023-03-13T01:01:23;2.80;99.90
54576;DHT22;40472;53.486;14.542;2023-03-13T01:03:54;2.80;99.90
54576;DHT22;40472;53.486;14.542;2023-03-13T01:06:23;2.90;99.90
54576;DHT22;40472;53.486;14.542;2023-03-13T01:08:50;3.00;99.90
54576;DHT22;40472;53.486;14.542;2023-03-13T01:11:19;3.00;99.90
54576;DHT22;40472;53.486;14.542;2023-03-13T01:13:46;3.00;99.90
54576;DHT22;40472;53.486;14.542;2023-03-13T01:16:15;3.10;99.90
54576;DHT22;40472;53.486;14.542;2023-03-13T01:18:44;3.10;99.90
54576;DHT22;40472;53.486;14.542;2023-03-13T01:21:12;3.20;99.90
54576;DHT22;40472;53.486;14.542;2023-03-13T01:23:38;3.20;99.90
54576;DHT22;40472;53.486;14.542;2023-03-13T01:26:06;3.30;99.90
54576;DHT22;40472;53.486;14.542;2023-03-13T01:28:32;3.30;99.90
54576;DHT22;40472;53.486;14.542;2023-03-13T01:31:00;3.30;99.90
54576;DHT22;40472;53.486;14.542;2023-03-13T01:33:26;3.30;99.90
54576;DHT22;40472;53.486;14.542;2023-03-13T01:35:52;3.30;99.90
54576;DHT22;40472;53.486;14.542;2023-03-13T01:38:25;3.40;99.90
54576;DHT22;40472;53.486;14.542;2023-03-13T01:40:51;3.40;99.90
54576;DHT22;40472;53.486;14.542;2023-03-13T01:51:28;3.50;99.90
54576;DHT22;40472;53.486;14.542;2023-03-13T01:56:44;3.60;99.90
54576;DHT22;40472;53.486;14.542;2023-03-13T01:59:16;3.70;99.90
54576;DHT22;40472;53.486;14.542;2023-03-13T02:01:45;3.70;99.90
54576;DHT22;40472;53.486;14.542;2023-03-13T02:04:13;3.70;99.90
54576;DHT22;40472;53.486;14.542;2023-03-13T02:06:42;3.80;99.90
54576;DHT22;40472;53.486;14.542;2023-03-13T02:09:17;3.80;99.90
54576;DHT22;40472;53.486;14.542;2023-03-13T02:14:42;3.80;99.90
54576;DHT22;40472;53.486;14.542;2023-03-13T02:17:10;3.80;99.90
54576;DHT22;40472;53.486;14.542;2023-03-13T02:19:42;3.80;99.90
54576;DHT22;40472;53.486;14.542;2023-03-13T02:27:51;3.90;99.90
54576;DHT22;40472;53.486;14.542;2023-03-13T02:30:18;3.90;99.90
54576;DHT22;40472;53.486;14.542;2023-03-13T02:32:44;3.90;99.90
54576;DHT22;40472;53.486;14.542;2023-03-13T02:35:13;3.90;99.90
54576;DHT22;40472;53.486;14.542;2023-03-13T02:37:42;3.90;99.90
54576;DHT22;40472;53.486;14.542;2023-03-13T02:40:11;4.00;99.90
54576;DHT22;40472;53.486;14.542;2023-03-13T02:42:41;4.00;99.90
54576;DHT22;40472;53.486;14.542;2023-03-13T02:45:09;4.00;99.90
54576;DHT22;40472;53.486;14.542;2023-03-13T02:47:35;4.10;99.90
54576;DHT22;40472;53.486;14.542;2023-03-13T02:50:00;4.00;99.90
54576;DHT22;40472;53.486;14.542;2023-03-13T02:52:41;4.00;99.90
54576;DHT22;40472;53.486;14.542;2023-03-13T02:55:14;4.00;99.90
54576;DHT22;40472;53.486;14.542;2023-03-13T02:57:43;4.00;99.90
54576;DHT22;40472;53.486;14.542;2023-03-13T03:00:10;4.00;99.90
54576;DHT22;40472;53.486;14.542;2023-03-13T03:02:38;4.00;99.90
54576;DHT22;40472;53.486;14.542;2023-03-13T03:05:05;4.00;99.90
54576;DHT22;40472;53.486;14.542;2023-03-13T03:07:30;4.00;99.90
54576;DHT22;40472;53.486;14.542;2023-03-13T03:09:56;4.00;99.90
54576;DHT22;40472;53.486;14.542;2023-03-13T03:12:22;4.00;99.90
54576;DHT22;40472;53.486;14.542;2023-03-13T03:14:47;4.00;99.90
54576;DHT22;40472;53.486;14.542;2023-03-13T03:17:13;4.00;99.90
54576;DHT22;40472;53.486;14.542;2023-03-13T03:19:39;4.10;99.90
54576;DHT22;40472;53.486;14.542;2023-03-13T03:22:05;4.10;99.90
54576;DHT22;40472;53.486;14.542;2023-03-13T03:24:31;4.10;99.90
54576;DHT22;40472;53.486;14.542;2023-03-13T03:26:56;4.10;99.90
54576;DHT22;40472;53.486;14.542;2023-03-13T03:29:22;4.10;99.90
54576;DHT22;40472;53.486;14.542;2023-03-13T03:31:48;4.00;99.90
54576;DHT22;40472;53.486;14.542;2023-03-13T03:34:14;4.10;99.90
54576;DHT22;40472;53.486;14.542;2023-03-13T03:36:39;4.10;99.90
54576;DHT22;40472;53.486;14.542;2023-03-13T03:39:06;4.10;99.90
54576;DHT22;40472;53.486;14.542;2023-03-13T03:41:31;4.10;99.90
54576;DHT22;40472;53.486;14.542;2023-03-13T03:43:57;4.10;99.90
54576;DHT22;40472;53.486;14.542;2023-03-13T03:46:23;4.00;99.90
54576;DHT22;40472;53.486;14.542;2023-03-13T03:48:49;4.10;99.90
54576;DHT22;40472;53.486;14.542;2023-03-13T03:51:15;4.00;99.90
54576;DHT22;40472;53.486;14.542;2023-03-13T03:53:41;4.00;99.90
54576;DHT22;40472;53.486;14.542;2023-03-13T03:56:06;4.00;99.90
54576;DHT22;40472;53.486;14.542;2023-03-13T03:58:32;4.00;99.90
54576;DHT22;40472;53.486;14.542;2023-03-13T04:00:59;4.00;99.90
54576;DHT22;40472;53.486;14.542;2023-03-13T04:03:25;4.00;99.90
54576;DHT22;40472;53.486;14.542;2023-03-13T04:05:51;4.00;99.90
54576;DHT22;40472;53.486;14.542;2023-03-13T04:08:16;4.00;99.90
54576;DHT22;40472;53.486;14.542;2023-03-13T04:10:42;4.00;99.90
54576;DHT22;40472;53.486;14.542;2023-03-13T04:13:08;4.10;99.90
54576;DHT22;40472;53.486;14.542;2023-03-13T04:15:34;4.10;99.90
54576;DHT22;40472;53.486;14.542;2023-03-13T04:18:00;4.00;99.90
54576;DHT22;40472;53.486;14.542;2023-03-13T04:20:25;4.00;99.90
54576;DHT22;40472;53.486;14.542;2023-03-13T04:22:53;4.10;99.90
54576;DHT22;40472;53.486;14.542;2023-03-13T04:25:19;4.10;99.90
54576;DHT22;40472;53.486;14.542;2023-03-13T04:27:45;4.20;99.90
54576;DHT22;40472;53.486;14.542;2023-03-13T04:30:11;4.20;99.90
54576;DHT22;40472;53.486;14.542;2023-03-13T04:32:37;4.20;99.90
54576;DHT22;40472;53.486;14.542;2023-03-13T04:35:03;4.20;99.90
54576;DHT22;40472;53.486;14.542;2023-03-13T04:37:29;4.30;99.90
54576;DHT22;40472;53.486;14.542;2023-03-13T04:39:54;4.20;99.90
54576;DHT22;40472;53.486;14.542;2023-03-13T04:42:20;4.30;99.90
54576;DHT22;40472;53.486;14.542;2023-03-13T04:44:46;4.30;99.90
54576;DHT22;40472;53.486;14.542;2023-03-13T04:47:11;4.20;99.90
54576;DHT22;40472;53.486;14.542;2023-03-13T04:49:37;4.30;99.90
54576;DHT22;40472;53.486;14.542;2023-03-13T04:52:03;4.30;99.90
54576;DHT22;40472;53.486;14.542;2023-03-13T04:54:29;4.30;99.90
54576;DHT22;40472;53.486;14.542;2023-03-13T04:56:55;4.40;99.90
54576;DHT22;40472;53.486;14.542;2023-03-13T04:59:20;4.30;99.90
54576;DHT22;40472;53.486;14.542;2023-03-13T05:01:46;4.40;99.90
54576;DHT22;40472;53.486;14.542;2023-03-13T05:04:12;4.40;99.90
54576;DHT22;40472;53.486;14.542;2023-03-13T05:06:38;4.40;99.90
54576;DHT22;40472;53.486;14.542;2023-03-13T05:09:04;4.40;99.90
54576;DHT22;40472;53.486;14.542;2023-03-13T05:11:30;4.50;99.90
54576;DHT22;40472;53.486;14.542;2023-03-13T05:13:56;4.50;99.90
54576;DHT22;40472;53.486;14.542;2023-03-13T05:16:21;4.50;99.90
54576;DHT22;40472;53.486;14.542;2023-03-13T05:18:47;4.60;99.90
54576;DHT22;40472;53.486;14.542;2023-03-13T05:21:13;4.60;99.90
54576;DHT22;40472;53.486;14.542;2023-03-13T05:23:39;4.50;99.90
54576;DHT22;40472;53.486;14.542;2023-03-13T05:26:04;4.50;99.90
54576;DHT22;40472;53.486;14.542;2023-03-13T05:28:30;4.60;99.90
54576;DHT22;40472;53.486;14.542;2023-03-13T05:30:56;4.60;99.90
54576;DHT22;40472;53.486;14.542;2023-03-13T05:33:22;4.60;99.90
54576;DHT22;40472;53.486;14.542;2023-03-13T05:35:48;4.60;99.90
54576;DHT22;40472;53.486;14.542;2023-03-13T05:38:14;4.60;99.90
54576;DHT22;40472;53.486;14.542;2023-03-13T05:40:40;4.60;99.90
54576;DHT22;40472;53.486;14.542;2023-03-13T05:43:06;4.60;99.90
54576;DHT22;40472;53.486;14.542;2023-03-13T05:45:32;4.70;99.90
54576;DHT22;40472;53.486;14.542;2023-03-13T05:47:58;4.70;99.90
54576;DHT22;40472;53.486;14.542;2023-03-13T05:50:24;4.80;99.90
54576;DHT22;40472;53.486;14.542;2023-03-13T05:52:50;4.80;99.90
54576;DHT22;40472;53.486;14.542;2023-03-13T05:55:17;4.80;99.90
54576;DHT22;40472;53.486;14.542;2023-03-13T05:57:48;4.80;99.90
54576;DHT22;40472;53.486;14.542;2023-03-13T06:00:16;4.90;99.90
54576;DHT22;40472;53.486;14.542;2023-03-13T06:02:42;4.90;99.90
54576;DHT22;40472;53.486;14.542;2023-03-13T06:05:09;4.90;99.90
54576;DHT22;40472;53.486;14.542;2023-03-13T06:07:35;4.90;99.90
54576;DHT22;40472;53.486;14.542;2023-03-13T06:10:01;5.00;99.90
54576;DHT22;40472;53.486;14.542;2023-03-13T06:12:27;5.00;99.90
54576;DHT22;40472;53.486;14.542;2023-03-13T06:14:52;4.90;99.90
54576;DHT22;40472;53.486;14.542;2023-03-13T06:17:18;5.00;99.90
54576;DHT22;40472;53.486;14.542;2023-03-13T06:19:45;5.00;99.90
54576;DHT22;40472;53.486;14.542;2023-03-13T06:22:11;5.10;99.90
54576;DHT22;40472;53.486;14.542;2023-03-13T06:24:37;5.10;99.90
54576;DHT22;40472;53.486;14.542;2023-03-13T06:27:02;5.10;99.90
54576;DHT22;40472;53.486;14.542;2023-03-13T06:29:28;5.10;99.90
54576;DHT22;40472;53.486;14.542;2023-03-13T06:31:54;5.10;99.90
54576;DHT22;40472;53.486;14.542;2023-03-13T06:34:19;5.10;99.90
54576;DHT22;40472;53.486;14.542;2023-03-13T06:36:45;5.10;99.90
54576;DHT22;40472;53.486;14.542;2023-03-13T06:39:11;5.20;99.90
54576;DHT22;40472;53.486;14.542;2023-03-13T06:41:37;5.20;99.90
54576;DHT22;40472;53.486;14.542;2023-03-13T06:44:04;5.30;99.90
54576;DHT22;40472;53.486;14.542;2023-03-13T06:46:30;5.20;99.90
54576;DHT22;40472;53.486;14.542;2023-03-13T06:48:57;5.20;99.90
54576;DHT22;40472;53.486;14.542;2023-03-13T06:51:23;5.30;99.90
54576;DHT22;40472;53.486;14.542;2023-03-13T06:53:51;5.30;99.90
54576;DHT22;40472;53.486;14.542;2023-03-13T06:56:17;5.40;99.90
54576;DHT22;40472;53.486;14.542;2023-03-13T06:58:46;5.40;99.90
54576;DHT22;40472;53.486;14.542;2023-03-13T07:01:13;5.40;99.90
54576;DHT22;40472;53.486;14.542;2023-03-13T07:03:39;5.30;99.90
54576;DHT22;40472;53.486;14.542;2023-03-13T07:06:06;5.40;99.90
54576;DHT22;40472;53.486;14.542;2023-03-13T07:08:33;5.50;99.90
54576;DHT22;40472;53.486;14.542;2023-03-13T07:11:04;5.50;99.90
54576;DHT22;40472;53.486;14.542;2023-03-13T07:13:30;5.50;99.90
54576;DHT22;40472;53.486;14.542;2023-03-13T07:16:01;5.60;99.90
54576;DHT22;40472;53.486;14.542;2023-03-13T07:18:29;5.60;99.90
54576;DHT22;40472;53.486;14.542;2023-03-13T07:20:57;5.60;99.90
54576;DHT22;40472;53.486;14.542;2023-03-13T07:23:24;5.60;99.90
54576;DHT22;40472;53.486;14.542;2023-03-13T07:25:55;5.60;99.90
54576;DHT22;40472;53.486;14.542;2023-03-13T07:28:21;5.60;99.90
54576;DHT22;40472;53.486;14.542;2023-03-13T07:30:47;5.70;99.90
54576;DHT22;40472;53.486;14.542;2023-03-13T07:33:14;5.70;99.90
54576;DHT22;40472;53.486;14.542;2023-03-13T07:35:40;5.70;99.90
54576;DHT22;40472;53.486;14.542;2023-03-13T07:38:05;5.80;99.90
54576;DHT22;40472;53.486;14.542;2023-03-13T07:40:31;5.80;99.90
54576;DHT22;40472;53.486;14.542;2023-03-13T07:42:57;5.80;99.90
54576;DHT22;40472;53.486;14.542;2023-03-13T07:45:23;5.90;99.90
54576;DHT22;40472;53.486;14.542;2023-03-13T07:47:48;6.00;99.90
54576;DHT22;40472;53.486;14.542;2023-03-13T07:50:14;5.90;99.90
54576;DHT22;40472;53.486;14.542;2023-03-13T07:52:40;6.00;99.90
54576;DHT22;40472;53.486;14.542;2023-03-13T07:55:06;6.00;99.90
54576;DHT22;40472;53.486;14.542;2023-03-13T07:57:31;5.90;99.90
54576;DHT22;40472;53.486;14.542;2023-03-13T07:59:57;5.90;99.90
54576;DHT22;40472;53.486;14.542;2023-03-13T08:02:23;6.00;99.90
54576;DHT22;40472;53.486;14.542;2023-03-13T08:04:52;5.90;99.90
54576;DHT22;40472;53.486;14.542;2023-03-13T08:07:18;6.00;99.90
54576;DHT22;40472;53.486;14.542;2023-03-13T08:09:44;6.10;99.90
54576;DHT22;40472;53.486;14.542;2023-03-13T08:12:10;6.00;99.90
54576;DHT22;40472;53.486;14.542;2023-03-13T08:14:36;6.20;99.90
54576;DHT22;40472;53.486;14.542;2023-03-13T08:17:02;6.10;99.90
54576;DHT22;40472;53.486;14.542;2023-03-13T08:19:27;6.10;99.90
54576;DHT22;40472;53.486;14.542;2023-03-13T08:21:53;6.20;99.90
54576;DHT22;40472;53.486;14.542;2023-03-13T08:24:19;6.20;99.90
54576;DHT22;40472;53.486;14.542;2023-03-13T08:26:45;6.20;99.90
54576;DHT22;40472;53.486;14.542;2023-03-13T08:29:13;6.20;99.90
54576;DHT22;40472;53.486;14.542;2023-03-13T08:31:46;6.20;99.90
54576;DHT22;40472;53.486;14.542;2023-03-13T08:34:13;6.40;99.90
54576;DHT22;40472;53.486;14.542;2023-03-13T08:36:39;6.40;99.90
54576;DHT22;40472;53.486;14.542;2023-03-13T08:39:13;6.30;99.90
54576;DHT22;40472;53.486;14.542;2023-03-13T08:41:40;6.40;99.90
54576;DHT22;40472;53.486;14.542;2023-03-13T08:44:07;6.40;99.90
54576;DHT22;40472;53.486;14.542;2023-03-13T08:46:35;6.40;99.90
54576;DHT22;40472;53.486;14.542;2023-03-13T08:49:02;6.30;99.90
54576;DHT22;40472;53.486;14.542;2023-03-13T08:51:28;6.30;99.90
54576;DHT22;40472;53.486;14.542;2023-03-13T08:53:54;6.40;99.90
54576;DHT22;40472;53.486;14.542;2023-03-13T08:56:23;6.40;99.90
54576;DHT22;40472;53.486;14.542;2023-03-13T08:58:56;6.50;99.90
54576;DHT22;40472;53.486;14.542;2023-03-13T09:01:24;6.40;99.90
54576;DHT22;40472;53.486;14.542;2023-03-13T09:03:50;6.40;99.90
54576;DHT22;40472;53.486;14.542;2023-03-13T09:06:17;6.40;99.90
54576;DHT22;40472;53.486;14.542;2023-03-13T09:08:43;6.40;99.90
54576;DHT22;40472;53.486;14.542;2023-03-13T09:11:11;6.30;99.90
54576;DHT22;40472;53.486;14.542;2023-03-13T09:13:40;6.50;99.90
54576;DHT22;40472;53.486;14.542;2023-03-13T09:16:12;6.50;99.90
54576;DHT22;40472;53.486;14.542;2023-03-13T09:18:38;6.50;99.90
54576;DHT22;40472;53.486;14.542;2023-03-13T09:21:07;6.50;99.90
54576;DHT22;40472;53.486;14.542;2023-03-13T09:23:33;6.60;99.90
54576;DHT22;40472;53.486;14.542;2023-03-13T09:25:59;6.60;99.90
54576;DHT22;40472;53.486;14.542;2023-03-13T09:28:25;6.70;99.90
54576;DHT22;40472;53.486;14.542;2023-03-13T09:30:52;6.60;99.90
54576;DHT22;40472;53.486;14.542;2023-03-13T09:33:19;6.70;99.90
54576;DHT22;40472;53.486;14.542;2023-03-13T09:35:45;6.70;99.90
54576;DHT22;40472;53.486;14.542;2023-03-13T09:38:19;6.70;99.90
54576;DHT22;40472;53.486;14.542;2023-03-13T09:40:48;6.80;99.90
54576;DHT22;40472;53.486;14.542;2023-03-13T09:49:14;6.80;99.90
54576;DHT22;40472;53.486;14.542;2023-03-13T09:51:46;6.90;99.90
54576;DHT22;40472;53.486;14.542;2023-03-13T09:56:47;6.80;99.90
54576;DHT22;40472;53.486;14.542;2023-03-13T09:59:19;6.90;99.90
54576;DHT22;40472;53.486;14.542;2023-03-13T10:01:48;6.90;99.90
54576;DHT22;40472;53.486;14.542;2023-03-13T10:04:34;7.00;99.90
54576;DHT22;40472;53.486;14.542;2023-03-13T10:07:02;7.00;99.90
54576;DHT22;40472;53.486;14.542;2023-03-13T10:09:30;7.00;99.90
54576;DHT22;40472;53.486;14.542;2023-03-13T10:14:43;7.10;99.90
54576;DHT22;40472;53.486;14.542;2023-03-13T10:20:39;7.20;99.90
54576;DHT22;40472;53.486;14.542;2023-03-13T10:22:49;7.20;99.90
54576;DHT22;40472;53.486;14.542;2023-03-13T10:25:23;7.20;99.90
54576;DHT22;40472;53.486;14.542;2023-03-13T10:27:52;7.30;99.90
54576;DHT22;40472;53.486;14.542;2023-03-13T10:30:33;7.30;99.90
54576;DHT22;40472;53.486;14.542;2023-03-13T10:33:18;7.40;99.90
54576;DHT22;40472;53.486;14.542;2023-03-13T10:35:45;7.40;99.90
54576;DHT22;40472;53.486;14.542;2023-03-13T10:38:18;7.40;99.90
54576;DHT22;40472;53.486;14.542;2023-03-13T10:40:56;7.40;99.90
54576;DHT22;40472;53.486;14.542;2023-03-13T10:43:24;7.50;99.90
54576;DHT22;40472;53.486;14.542;2023-03-13T10:45:51;7.50;99.90
54576;DHT22;40472;53.486;14.542;2023-03-13T10:48:22;7.50;99.90
54576;DHT22;40472;53.486;14.542;2023-03-13T10:50:54;7.50;99.90
54576;DHT22;40472;53.486;14.542;2023-03-13T10:53:26;7.60;99.90
54576;DHT22;40472;53.486;14.542;2023-03-13T10:55:59;7.60;99.90
54576;DHT22;40472;53.486;14.542;2023-03-13T10:58:45;7.60;99.90
54576;DHT22;40472;53.486;14.542;2023-03-13T11:01:26;7.70;99.90
54576;DHT22;40472;53.486;14.542;2023-03-13T11:03:55;7.70;99.90
54576;DHT22;40472;53.486;14.542;2023-03-13T11:11:51;7.80;99.90
54576;DHT22;40472;53.486;14.542;2023-03-13T11:14:23;7.90;99.90
54576;DHT22;40472;53.486;14.542;2023-03-13T11:16:53;7.90;99.90
54576;DHT22;40472;53.486;14.542;2023-03-13T11:19:36;8.00;99.90
54576;DHT22;40472;53.486;14.542;2023-03-13T11:27:14;8.10;99.90
54576;DHT22;40472;53.486;14.542;2023-03-13T11:32:55;8.10;99.90
54576;DHT22;40472;53.486;14.542;2023-03-13T11:37:52;8.30;99.90
54576;DHT22;40472;53.486;14.542;2023-03-13T11:40:27;8.30;99.90
54576;DHT22;40472;53.486;14.542;2023-03-13T11:45:44;8.50;99.90
54576;DHT22;40472;53.486;14.542;2023-03-13T11:54:39;8.60;99.90
54576;DHT22;40472;53.486;14.542;2023-03-13T11:57:07;8.60;99.90
54576;DHT22;40472;53.486;14.542;2023-03-13T11:59:43;8.60;99.90
54576;DHT22;40472;53.486;14.542;2023-03-13T12:02:24;8.70;99.90
54576;DHT22;40472;53.486;14.542;2023-03-13T12:05:12;8.70;99.90
54576;DHT22;40472;53.486;14.542;2023-03-13T12:10:36;8.80;99.90
54576;DHT22;40472;53.486;14.542;2023-03-13T12:13:27;8.80;99.90
54576;DHT22;40472;53.486;14.542;2023-03-13T12:15:58;8.80;99.90
54576;DHT22;40472;53.486;14.542;2023-03-13T12:18:37;8.90;99.90
54576;DHT22;40472;53.486;14.542;2023-03-13T12:21:18;8.90;99.90
54576;DHT22;40472;53.486;14.542;2023-03-13T12:23:53;9.00;99.90
54576;DHT22;40472;53.486;14.542;2023-03-13T12:26:25;9.10;99.90
54576;DHT22;40472;53.486;14.542;2023-03-13T12:34:08;9.20;99.90
54576;DHT22;40472;53.486;14.542;2023-03-13T12:36:45;9.30;99.90
54576;DHT22;40472;53.486;14.542;2023-03-13T12:44:58;9.40;99.90
54576;DHT22;40472;53.486;14.542;2023-03-13T12:56:00;9.70;99.90
54576;DHT22;40472;53.486;14.542;2023-03-13T12:58:50;9.80;99.90
54576;DHT22;40472;53.486;14.542;2023-03-13T13:04:05;9.90;99.90
54576;DHT22;40472;53.486;14.542;2023-03-13T13:09:26;10.00;99.90
54576;DHT22;40472;53.486;14.542;2023-03-13T13:19:45;10.50;99.90
54576;DHT22;40472;53.486;14.542;2023-03-13T13:32:47;11.30;99.90
54576;DHT22;40472;53.486;14.542;2023-03-13T13:35:30;11.30;99.90
54576;DHT22;40472;53.486;14.542;2023-03-13T13:43:46;12.00;99.90
54576;DHT22;40472;53.486;14.542;2023-03-13T13:46:30;12.20;99.90
54576;DHT22;40472;53.486;14.542;2023-03-13T13:51:29;12.50;99.90
54576;DHT22;40472;53.486;14.542;2023-03-13T13:56:57;12.50;99.90
54576;DHT22;40472;53.486;14.542;2023-03-13T14:07:04;12.50;99.90
54576;DHT22;40472;53.486;14.542;2023-03-13T14:12:27;12.60;99.90
54576;DHT22;40472;53.486;14.542;2023-03-13T14:17:54;12.80;99.90
54576;DHT22;40472;53.486;14.542;2023-03-13T14:20:34;12.80;99.90
54576;DHT22;40472;53.486;14.542;2023-03-13T14:23:08;13.00;99.90
54576;DHT22;40472;53.486;14.542;2023-03-13T14:30:49;13.50;99.90
54576;DHT22;40472;53.486;14.542;2023-03-13T14:33:15;13.60;99.90
54576;DHT22;40472;53.486;14.542;2023-03-13T14:35:41;13.70;99.90
54576;DHT22;40472;53.486;14.542;2023-03-13T14:38:19;13.60;99.90
54576;DHT22;40472;53.486;14.542;2023-03-13T14:40:45;13.60;99.90
54576;DHT22;40472;53.486;14.542;2023-03-13T14:43:34;13.70;99.90
54576;DHT22;40472;53.486;14.542;2023-03-13T14:46:31;13.70;99.90
54576;DHT22;40472;53.486;14.542;2023-03-13T14:49:12;13.70;99.90
54576;DHT22;40472;53.486;14.542;2023-03-13T14:51:39;13.70;99.90
54576;DHT22;40472;53.486;14.542;2023-03-13T14:54:31;13.70;99.90
54576;DHT22;40472;53.486;14.542;2023-03-13T14:59:31;13.70;99.90
54576;DHT22;40472;53.486;14.542;2023-03-13T15:02:20;13.80;99.90
54576;DHT22;40472;53.486;14.542;2023-03-13T15:05:04;13.80;99.90
54576;DHT22;40472;53.486;14.542;2023-03-13T15:07:37;13.90;99.90
54576;DHT22;40472;53.486;14.542;2023-03-13T15:10:31;13.90;99.90
54576;DHT22;40472;53.486;14.542;2023-03-13T15:12:58;13.90;99.90
54576;DHT22;40472;53.486;14.542;2023-03-13T15:15:24;13.90;99.90
54576;DHT22;40472;53.486;14.542;2023-03-13T15:17:50;14.00;99.90
54576;DHT22;40472;53.486;14.542;2023-03-13T15:20:16;14.00;99.90
54576;DHT22;40472;53.486;14.542;2023-03-13T15:22:44;13.90;99.90
54576;DHT22;40472;53.486;14.542;2023-03-13T15:25:15;13.90;99.90
54576;DHT22;40472;53.486;14.542;2023-03-13T15:27:42;13.90;99.90
54576;DHT22;40472;53.486;14.542;2023-03-13T15:30:09;13.90;99.90
54576;DHT22;40472;53.486;14.542;2023-03-13T15:32:37;13.90;99.90
54576;DHT22;40472;53.486;14.542;2023-03-13T15:35:31;13.80;99.90
54576;DHT22;40472;53.486;14.542;2023-03-13T15:37:58;13.60;99.90
54576;DHT22;40472;53.486;14.542;2023-03-13T15:40:25;13.50;99.90
54576;DHT22;40472;53.486;14.542;2023-03-13T15:42:52;13.50;99.90
54576;DHT22;40472;53.486;14.542;2023-03-13T15:45:18;13.30;99.90
54576;DHT22;40472;53.486;14.542;2023-03-13T15:47:45;13.30;99.90
54576;DHT22;40472;53.486;14.542;2023-03-13T15:50:14;13.40;99.90
54576;DHT22;40472;53.486;14.542;2023-03-13T15:52:40;13.40;99.90
54576;DHT22;40472;53.486;14.542;2023-03-13T15:55:08;13.50;99.90
54576;DHT22;40472;53.486;14.542;2023-03-13T15:57:36;13.60;99.90
54576;DHT22;40472;53.486;14.542;2023-03-13T16:00:08;13.60;99.90
54576;DHT22;40472;53.486;14.542;2023-03-13T16:02:36;13.60;99.90
54576;DHT22;40472;53.486;14.542;2023-03-13T16:05:02;13.60;99.90
54576;DHT22;40472;53.486;14.542;2023-03-13T16:07:29;13.50;99.90
54576;DHT22;40472;53.486;14.542;2023-03-13T16:09:55;13.50;99.90
54576;DHT22;40472;53.486;14.542;2023-03-13T16:12:21;13.40;99.90
54576;DHT22;40472;53.486;14.542;2023-03-13T16:14:46;13.30;99.90
54576;DHT22;40472;53.486;14.542;2023-03-13T16:17:15;13.30;99.90
54576;DHT22;40472;53.486;14.542;2023-03-13T16:19:42;13.20;99.90
54576;DHT22;40472;53.486;14.542;2023-03-13T16:22:11;13.20;99.90
54576;DHT22;40472;53.486;14.542;2023-03-13T16:24:38;13.10;99.90
54576;DHT22;40472;53.486;14.542;2023-03-13T16:27:14;13.00;99.90
54576;DHT22;40472;53.486;14.542;2023-03-13T16:29:40;13.10;99.90
54576;DHT22;40472;53.486;14.542;2023-03-13T16:32:07;13.00;99.90
54576;DHT22;40472;53.486;14.542;2023-03-13T16:34:34;13.10;99.90
54576;DHT22;40472;53.486;14.542;2023-03-13T16:37:00;13.10;99.90
54576;DHT22;40472;53.486;14.542;2023-03-13T16:39:26;13.00;99.90
54576;DHT22;40472;53.486;14.542;2023-03-13T16:41:52;12.90;99.90
54576;DHT22;40472;53.486;14.542;2023-03-13T16:44:18;12.80;99.90
54576;DHT22;40472;53.486;14.542;2023-03-13T16:46:44;12.80;99.90
54576;DHT22;40472;53.486;14.542;2023-03-13T16:49:14;12.70;99.90
54576;DHT22;40472;53.486;14.542;2023-03-13T16:51:40;12.80;99.90
54576;DHT22;40472;53.486;14.542;2023-03-13T16:54:06;12.70;99.90
54576;DHT22;40472;53.486;14.542;2023-03-13T16:56:34;12.70;99.90
54576;DHT22;40472;53.486;14.542;2023-03-13T16:59:10;12.60;99.90
54576;DHT22;40472;53.486;14.542;2023-03-13T17:01:37;12.60;99.90
54576;DHT22;40472;53.486;14.542;2023-03-13T17:04:03;12.60;99.90
54576;DHT22;40472;53.486;14.542;2023-03-13T17:06:33;12.50;99.90
54576;DHT22;40472;53.486;14.542;2023-03-13T17:09:00;12.50;99.90
54576;DHT22;40472;53.486;14.542;2023-03-13T17:11:27;12.40;99.90
54576;DHT22;40472;53.486;14.542;2023-03-13T17:13:53;12.40;99.90
54576;DHT22;40472;53.486;14.542;2023-03-13T17:18:47;12.40;99.90
54576;DHT22;40472;53.486;14.542;2023-03-13T17:21:20;12.30;99.90
54576;DHT22;40472;53.486;14.542;2023-03-13T17:23:46;12.30;99.90
54576;DHT22;40472;53.486;14.542;2023-03-13T17:26:17;12.30;99.90
54576;DHT22;40472;53.486;14.542;2023-03-13T17:28:45;12.30;99.90
54576;DHT22;40472;53.486;14.542;2023-03-13T17:31:11;12.20;99.90
54576;DHT22;40472;53.486;14.542;2023-03-13T17:33:38;12.20;99.90
54576;DHT22;40472;53.486;14.542;2023-03-13T17:36:22;12.20;99.90
54576;DHT22;40472;53.486;14.542;2023-03-13T17:38:50;12.10;99.90
54576;DHT22;40472;53.486;14.542;2023-03-13T17:41:22;12.00;99.90
54576;DHT22;40472;53.486;14.542;2023-03-13T17:43:50;11.80;99.90
54576;DHT22;40472;53.486;14.542;2023-03-13T17:46:24;11.80;99.90
54576;DHT22;40472;53.486;14.542;2023-03-13T17:48:54;11.80;99.90
54576;DHT22;40472;53.486;14.542;2023-03-13T17:51:23;11.70;99.90
54576;DHT22;40472;53.486;14.542;2023-03-13T17:53:50;11.70;99.90
54576;DHT22;40472;53.486;14.542;2023-03-13T17:56:22;11.60;99.90